Terminal Aerodrome Forecast
Issued by NWS

Home | Current Version | Previous Version | Text Only | Print | Product List | Glossary On
Versions: 1 2 3 4 5 6 7 8 9 10 11 12 13 14 15 16
000
FTUS44 KOHX 250200 AAA
TAFCKV
TAF AMD
KCKV 250257Z 2503/2524 18010KT P6SM VCSH BKN050CB OVC100
      TEMPO 2503/2507 4SM TSRA OVC040CB
     FM250700 22012G22KT P6SM VCSH OVC015
     FM251300 30012G20KT P6SM BKN020
     FM251700 32015G22KT P6SM SCT045=

USA.gov is the U.S. government's official web portal to all federal, state and local government web resources and services.